sensor_id;sensor_type;location;lat;lon;timestamp;temperature;humidity
68511;SHT31;55512;50.102;19.958;2023-02-28T00:00:22;2.81;55.35
68511;SHT31;55512;50.102;19.958;2023-02-28T00:02:48;2.81;55.41
68511;SHT31;55512;50.102;19.958;2023-02-28T00:05:16;2.80;55.40
68511;SHT31;55512;50.102;19.958;2023-02-28T00:07:47;2.83;55.40
68511;SHT31;55512;50.102;19.958;2023-02-28T00:10:15;2.82;55.44
68511;SHT31;55512;50.102;19.958;2023-02-28T00:12:46;2.82;55.50
68511;SHT31;55512;50.102;19.958;2023-02-28T00:15:13;2.83;55.73
68511;SHT31;55512;50.102;19.958;2023-02-28T00:17:38;2.82;55.86
68511;SHT31;55512;50.102;19.958;2023-02-28T00:20:05;2.82;55.97
68511;SHT31;55512;50.102;19.958;2023-02-28T00:25:14;2.81;55.93
68511;SHT31;55512;50.102;19.958;2023-02-28T00:27:43;2.80;55.80
68511;SHT31;55512;50.102;19.958;2023-02-28T00:30:11;2.78;55.79
68511;SHT31;55512;50.102;19.958;2023-02-28T00:32:41;2.77;55.83
68511;SHT31;55512;50.102;19.958;2023-02-28T00:35:06;2.76;55.90
68511;SHT31;55512;50.102;19.958;2023-02-28T00:37:33;2.74;55.84
68511;SHT31;55512;50.102;19.958;2023-02-28T00:39:59;2.72;55.81
68511;SHT31;55512;50.102;19.958;2023-02-28T00:42:25;2.70;55.81
68511;SHT31;55512;50.102;19.958;2023-02-28T00:44:51;2.68;55.85
68511;SHT31;55512;50.102;19.958;2023-02-28T00:47:16;2.66;55.90
68511;SHT31;55512;50.102;19.958;2023-02-28T00:49:42;2.65;56.00
68511;SHT31;55512;50.102;19.958;2023-02-28T00:52:08;2.63;56.03
68511;SHT31;55512;50.102;19.958;2023-02-28T00:54:33;2.61;56.06
68511;SHT31;55512;50.102;19.958;2023-02-28T00:56:59;2.59;56.01
68511;SHT31;55512;50.102;19.958;2023-02-28T00:59:24;2.57;56.00
68511;SHT31;55512;50.102;19.958;2023-02-28T01:01:50;2.54;56.08
68511;SHT31;55512;50.102;19.958;2023-02-28T01:04:16;2.48;56.10
68511;SHT31;55512;50.102;19.958;2023-02-28T01:06:41;2.43;56.10
68511;SHT31;55512;50.102;19.958;2023-02-28T01:09:07;2.38;56.10
68511;SHT31;55512;50.102;19.958;2023-02-28T01:11:33;2.33;56.14
68511;SHT31;55512;50.102;19.958;2023-02-28T01:14:00;2.30;56.20
68511;SHT31;55512;50.102;19.958;2023-02-28T01:16:27;2.27;56.22
68511;SHT31;55512;50.102;19.958;2023-02-28T01:18:53;2.25;56.25
68511;SHT31;55512;50.102;19.958;2023-02-28T01:21:19;2.22;56.26
68511;SHT31;55512;50.102;19.958;2023-02-28T01:23:47;2.18;56.36
68511;SHT31;55512;50.102;19.958;2023-02-28T01:26:14;2.13;56.49
68511;SHT31;55512;50.102;19.958;2023-02-28T01:28:45;2.08;56.65
68511;SHT31;55512;50.102;19.958;2023-02-28T01:31:12;2.04;56.84
68511;SHT31;55512;50.102;19.958;2023-02-28T01:33:38;2.03;57.04
68511;SHT31;55512;50.102;19.958;2023-02-28T01:36:11;2.00;57.27
68511;SHT31;55512;50.102;19.958;2023-02-28T01:38:40;1.99;57.48
68511;SHT31;55512;50.102;19.958;2023-02-28T01:41:06;1.96;57.63
68511;SHT31;55512;50.102;19.958;2023-02-28T01:43:55;1.95;57.88
68511;SHT31;55512;50.102;19.958;2023-02-28T01:46:49;1.94;58.09
68511;SHT31;55512;50.102;19.958;2023-02-28T01:49:15;1.94;58.16
68511;SHT31;55512;50.102;19.958;2023-02-28T01:51:50;1.94;58.36
68511;SHT31;55512;50.102;19.958;2023-02-28T01:54:41;1.94;58.40
68511;SHT31;55512;50.102;19.958;2023-02-28T01:57:06;1.94;58.40
68511;SHT31;55512;50.102;19.958;2023-02-28T02:02:21;1.96;58.57
68511;SHT31;55512;50.102;19.958;2023-02-28T02:04:53;1.95;58.65
68511;SHT31;55512;50.102;19.958;2023-02-28T02:07:26;1.96;58.70
68511;SHT31;55512;50.102;19.958;2023-02-28T02:10:02;1.92;58.69
68511;SHT31;55512;50.102;19.958;2023-02-28T02:12:37;1.89;58.78
68511;SHT31;55512;50.102;19.958;2023-02-28T02:15:36;1.88;58.80
68511;SHT31;55512;50.102;19.958;2023-02-28T02:18:26;1.86;58.80
68511;SHT31;55512;50.102;19.958;2023-02-28T02:46:42;1.46;59.32
68511;SHT31;55512;50.102;19.958;2023-02-28T02:49:21;1.43;59.31
68511;SHT31;55512;50.102;19.958;2023-02-28T02:51:53;1.39;59.30
68511;SHT31;55512;50.102;19.958;2023-02-28T02:54:24;1.36;59.23
68511;SHT31;55512;50.102;19.958;2023-02-28T02:56:55;1.33;59.20
68511;SHT31;55512;50.102;19.958;2023-02-28T02:59:26;1.30;59.17
68511;SHT31;55512;50.102;19.958;2023-02-28T03:01:55;1.26;59.10
68511;SHT31;55512;50.102;19.958;2023-02-28T03:04:28;1.23;59.10
68511;SHT31;55512;50.102;19.958;2023-02-28T03:07:05;1.20;59.03
68511;SHT31;55512;50.102;19.958;2023-02-28T03:09:32;1.18;59.00
68511;SHT31;55512;50.102;19.958;2023-02-28T03:12:00;1.15;59.00
68511;SHT31;55512;50.102;19.958;2023-02-28T03:22:45;1.04;58.93
68511;SHT31;55512;50.102;19.958;2023-02-28T03:34:21;0.91;59.34
68511;SHT31;55512;50.102;19.958;2023-02-28T03:36:59;0.88;59.43
68511;SHT31;55512;50.102;19.958;2023-02-28T03:39:38;0.86;59.48
68511;SHT31;55512;50.102;19.958;2023-02-28T03:42:16;0.84;59.60
68511;SHT31;55512;50.102;19.958;2023-02-28T03:44:57;0.82;59.70
68511;SHT31;55512;50.102;19.958;2023-02-28T03:50:27;0.77;59.85
68511;SHT31;55512;50.102;19.958;2023-02-28T03:56:22;0.70;60.05
68511;SHT31;55512;50.102;19.958;2023-02-28T04:01:44;0.65;60.28
68511;SHT31;55512;50.102;19.958;2023-02-28T04:04:12;0.63;60.39
68511;SHT31;55512;50.102;19.958;2023-02-28T04:06:39;0.61;60.52
68511;SHT31;55512;50.102;19.958;2023-02-28T04:09:06;0.60;60.66
68511;SHT31;55512;50.102;19.958;2023-02-28T04:11:36;0.57;60.74
68511;SHT31;55512;50.102;19.958;2023-02-28T04:14:03;0.55;60.88
68511;SHT31;55512;50.102;19.958;2023-02-28T04:16:31;0.54;60.99
68511;SHT31;55512;50.102;19.958;2023-02-28T04:18:58;0.52;61.07
68511;SHT31;55512;50.102;19.958;2023-02-28T04:21:37;0.51;61.18
68511;SHT31;55512;50.102;19.958;2023-02-28T04:24:07;0.49;61.24
68511;SHT31;55512;50.102;19.958;2023-02-28T04:26:39;0.48;61.35
68511;SHT31;55512;50.102;19.958;2023-02-28T04:29:08;0.47;61.42
68511;SHT31;55512;50.102;19.958;2023-02-28T04:31:36;0.46;61.52
68511;SHT31;55512;50.102;19.958;2023-02-28T04:34:02;0.45;61.60
68511;SHT31;55512;50.102;19.958;2023-02-28T04:36:28;0.44;61.63
68511;SHT31;55512;50.102;19.958;2023-02-28T04:38:54;0.43;61.70
68511;SHT31;55512;50.102;19.958;2023-02-28T04:41:20;0.40;61.75
68511;SHT31;55512;50.102;19.958;2023-02-28T04:43:48;0.39;61.80
68511;SHT31;55512;50.102;19.958;2023-02-28T04:46:14;0.38;61.80
68511;SHT31;55512;50.102;19.958;2023-02-28T04:48:40;0.36;61.80
68511;SHT31;55512;50.102;19.958;2023-02-28T04:51:10;0.35;61.84
68511;SHT31;55512;50.102;19.958;2023-02-28T04:53:38;0.34;61.89
68511;SHT31;55512;50.102;19.958;2023-02-28T04:56:06;0.33;61.88
68511;SHT31;55512;50.102;19.958;2023-02-28T04:58:33;0.33;61.85
68511;SHT31;55512;50.102;19.958;2023-02-28T05:01:06;0.32;61.87
68511;SHT31;55512;50.102;19.958;2023-02-28T05:03:49;0.31;61.90
68511;SHT31;55512;50.102;19.958;2023-02-28T05:06:17;0.30;61.92
68511;SHT31;55512;50.102;19.958;2023-02-28T05:08:45;0.30;61.96
68511;SHT31;55512;50.102;19.958;2023-02-28T05:11:13;0.28;62.00
68511;SHT31;55512;50.102;19.958;2023-02-28T05:13:49;0.26;62.09
68511;SHT31;55512;50.102;19.958;2023-02-28T05:16:16;0.24;62.12
68511;SHT31;55512;50.102;19.958;2023-02-28T05:18:42;0.22;62.19
68511;SHT31;55512;50.102;19.958;2023-02-28T05:21:25;0.20;62.20
68511;SHT31;55512;50.102;19.958;2023-02-28T05:23:56;0.20;62.32
68511;SHT31;55512;50.102;19.958;2023-02-28T05:26:26;0.19;62.36
68511;SHT31;55512;50.102;19.958;2023-02-28T05:28:53;0.18;62.43
68511;SHT31;55512;50.102;19.958;2023-02-28T05:31:20;0.18;62.54
68511;SHT31;55512;50.102;19.958;2023-02-28T05:33:46;0.19;62.53
68511;SHT31;55512;50.102;19.958;2023-02-28T05:36:12;0.19;62.51
68511;SHT31;55512;50.102;19.958;2023-02-28T05:38:38;0.20;62.53
68511;SHT31;55512;50.102;19.958;2023-02-28T05:41:05;0.21;62.49
68511;SHT31;55512;50.102;19.958;2023-02-28T05:43:32;0.21;62.46
68511;SHT31;55512;50.102;19.958;2023-02-28T05:45:58;0.21;62.49
68511;SHT31;55512;50.102;19.958;2023-02-28T05:48:23;0.22;62.54
68511;SHT31;55512;50.102;19.958;2023-02-28T05:50:48;0.22;62.43
68511;SHT31;55512;50.102;19.958;2023-02-28T05:53:14;0.24;62.44
68511;SHT31;55512;50.102;19.958;2023-02-28T05:55:40;0.24;62.40
68511;SHT31;55512;50.102;19.958;2023-02-28T05:58:06;0.24;62.40
68511;SHT31;55512;50.102;19.958;2023-02-28T06:00:31;0.26;62.47
68511;SHT31;55512;50.102;19.958;2023-02-28T06:02:57;0.28;62.43
68511;SHT31;55512;50.102;19.958;2023-02-28T06:05:24;0.30;62.40
68511;SHT31;55512;50.102;19.958;2023-02-28T06:07:50;0.32;62.44
68511;SHT31;55512;50.102;19.958;2023-02-28T06:10:15;0.35;62.50
68511;SHT31;55512;50.102;19.958;2023-02-28T06:12:41;0.36;62.50
68511;SHT31;55512;50.102;19.958;2023-02-28T06:15:07;0.38;62.54
68511;SHT31;55512;50.102;19.958;2023-02-28T06:17:40;0.38;62.66
68511;SHT31;55512;50.102;19.958;2023-02-28T06:20:08;0.39;62.70
68511;SHT31;55512;50.102;19.958;2023-02-28T06:22:37;0.41;62.73
68511;SHT31;55512;50.102;19.958;2023-02-28T06:25:04;0.44;62.70
68511;SHT31;55512;50.102;19.958;2023-02-28T06:27:32;0.46;62.74
68511;SHT31;55512;50.102;19.958;2023-02-28T06:29:59;0.48;62.80
68511;SHT31;55512;50.102;19.958;2023-02-28T06:32:25;0.51;62.82
68511;SHT31;55512;50.102;19.958;2023-02-28T06:34:50;0.52;62.90
68511;SHT31;55512;50.102;19.958;2023-02-28T06:37:17;0.55;62.91
68511;SHT31;55512;50.102;19.958;2023-02-28T06:39:42;0.57;62.96
68511;SHT31;55512;50.102;19.958;2023-02-28T06:42:08;0.60;63.00
68511;SHT31;55512;50.102;19.958;2023-02-28T06:44:34;0.62;63.02
68511;SHT31;55512;50.102;19.958;2023-02-28T06:47:00;0.65;63.01
68511;SHT31;55512;50.102;19.958;2023-02-28T06:49:28;0.66;63.00
68511;SHT31;55512;50.102;19.958;2023-02-28T06:51:57;0.69;63.00
68511;SHT31;55512;50.102;19.958;2023-02-28T06:54:23;0.70;63.06
68511;SHT31;55512;50.102;19.958;2023-02-28T06:56:49;0.72;63.10
68511;SHT31;55512;50.102;19.958;2023-02-28T06:59:15;0.75;63.07
68511;SHT31;55512;50.102;19.958;2023-02-28T07:01:41;0.77;63.06
68511;SHT31;55512;50.102;19.958;2023-02-28T07:04:07;0.80;63.03
68511;SHT31;55512;50.102;19.958;2023-02-28T07:06:33;0.82;63.00
68511;SHT31;55512;50.102;19.958;2023-02-28T07:08:59;0.83;63.00
68511;SHT31;55512;50.102;19.958;2023-02-28T07:11:25;0.86;63.00
68511;SHT31;55512;50.102;19.958;2023-02-28T07:13:53;0.89;63.00
68511;SHT31;55512;50.102;19.958;2023-02-28T07:16:21;0.92;63.00
68511;SHT31;55512;50.102;19.958;2023-02-28T07:18:47;0.95;63.00
68511;SHT31;55512;50.102;19.958;2023-02-28T07:21:14;0.96;62.90
68511;SHT31;55512;50.102;19.958;2023-02-28T07:23:40;1.02;62.90
68511;SHT31;55512;50.102;19.958;2023-02-28T07:26:07;1.07;62.88
68511;SHT31;55512;50.102;19.958;2023-02-28T07:28:40;1.12;62.77
68511;SHT31;55512;50.102;19.958;2023-02-28T07:31:07;1.15;62.70
68511;SHT31;55512;50.102;19.958;2023-02-28T07:33:34;1.21;62.70
68511;SHT31;55512;50.102;19.958;2023-02-28T07:36:01;1.24;62.69
68511;SHT31;55512;50.102;19.958;2023-02-28T07:38:36;1.30;62.65
68511;SHT31;55512;50.102;19.958;2023-02-28T07:41:02;1.35;62.60
68511;SHT31;55512;50.102;19.958;2023-02-28T07:43:33;1.41;62.51
68511;SHT31;55512;50.102;19.958;2023-02-28T07:46:18;1.46;62.40
68511;SHT31;55512;50.102;19.958;2023-02-28T07:48:46;1.52;62.25
68511;SHT31;55512;50.102;19.958;2023-02-28T07:51:11;1.58;62.15
68511;SHT31;55512;50.102;19.958;2023-02-28T07:53:37;1.65;62.04
68511;SHT31;55512;50.102;19.958;2023-02-28T07:56:03;1.71;61.90
68511;SHT31;55512;50.102;19.958;2023-02-28T07:58:29;1.79;61.70
68511;SHT31;55512;50.102;19.958;2023-02-28T08:00:55;1.88;61.59
68511;SHT31;55512;50.102;19.958;2023-02-28T08:03:22;1.96;61.48
68511;SHT31;55512;50.102;19.958;2023-02-28T08:05:49;2.06;61.36
68511;SHT31;55512;50.102;19.958;2023-02-28T08:08:16;2.13;61.01
68511;SHT31;55512;50.102;19.958;2023-02-28T08:10:42;2.22;60.67
68511;SHT31;55512;50.102;19.958;2023-02-28T08:13:08;2.32;60.37
68511;SHT31;55512;50.102;19.958;2023-02-28T08:15:34;2.41;60.06
68511;SHT31;55512;50.102;19.958;2023-02-28T08:18:01;2.47;59.58
68511;SHT31;55512;50.102;19.958;2023-02-28T08:20:26;2.56;59.15
68511;SHT31;55512;50.102;19.958;2023-02-28T08:22:52;2.64;58.96
68511;SHT31;55512;50.102;19.958;2023-02-28T08:25:18;2.74;58.66
68511;SHT31;55512;50.102;19.958;2023-02-28T08:27:43;2.83;58.65
68511;SHT31;55512;50.102;19.958;2023-02-28T08:30:13;2.91;58.60
68511;SHT31;55512;50.102;19.958;2023-02-28T08:32:40;3.01;58.40
68511;SHT31;55512;50.102;19.958;2023-02-28T08:35:06;3.08;58.03
68511;SHT31;55512;50.102;19.958;2023-02-28T08:37:32;3.16;57.69
68511;SHT31;55512;50.102;19.958;2023-02-28T08:39:57;3.24;56.79
68511;SHT31;55512;50.102;19.958;2023-02-28T08:42:23;3.32;56.27
68511;SHT31;55512;50.102;19.958;2023-02-28T08:44:49;3.39;56.00
68511;SHT31;55512;50.102;19.958;2023-02-28T08:47:14;3.47;55.66
68511;SHT31;55512;50.102;19.958;2023-02-28T08:49:40;3.55;55.16
68511;SHT31;55512;50.102;19.958;2023-02-28T08:52:05;3.61;54.70
68511;SHT31;55512;50.102;19.958;2023-02-28T08:54:31;3.68;54.24
68511;SHT31;55512;50.102;19.958;2023-02-28T08:56:58;3.74;53.93
68511;SHT31;55512;50.102;19.958;2023-02-28T08:59:23;3.79;53.58
68511;SHT31;55512;50.102;19.958;2023-02-28T09:01:49;3.86;53.22
68511;SHT31;55512;50.102;19.958;2023-02-28T09:04:14;3.93;52.91
68511;SHT31;55512;50.102;19.958;2023-02-28T09:06:40;3.97;52.26
68511;SHT31;55512;50.102;19.958;2023-02-28T09:09:05;4.04;52.16
68511;SHT31;55512;50.102;19.958;2023-02-28T09:11:32;4.12;51.83
68511;SHT31;55512;50.102;19.958;2023-02-28T09:14:00;4.21;51.62
68511;SHT31;55512;50.102;19.958;2023-02-28T09:16:28;4.31;51.46
68511;SHT31;55512;50.102;19.958;2023-02-28T09:18:58;4.41;51.21
68511;SHT31;55512;50.102;19.958;2023-02-28T09:21:24;4.51;51.00
68511;SHT31;55512;50.102;19.958;2023-02-28T09:23:50;4.59;50.81
68511;SHT31;55512;50.102;19.958;2023-02-28T09:26:27;4.66;50.71
68511;SHT31;55512;50.102;19.958;2023-02-28T09:28:53;4.73;50.61
68511;SHT31;55512;50.102;19.958;2023-02-28T09:31:23;4.81;50.44
68511;SHT31;55512;50.102;19.958;2023-02-28T09:33:54;4.86;49.86
68511;SHT31;55512;50.102;19.958;2023-02-28T09:36:23;4.88;49.59
68511;SHT31;55512;50.102;19.958;2023-02-28T09:38:50;4.89;49.46
68511;SHT31;55512;50.102;19.958;2023-02-28T09:41:27;4.91;49.14
68511;SHT31;55512;50.102;19.958;2023-02-28T09:44:05;4.93;49.03
68511;SHT31;55512;50.102;19.958;2023-02-28T09:46:40;4.93;48.77
68511;SHT31;55512;50.102;19.958;2023-02-28T09:49:16;4.89;48.64
68511;SHT31;55512;50.102;19.958;2023-02-28T09:54:16;4.86;48.74
68511;SHT31;55512;50.102;19.958;2023-02-28T09:56:51;4.82;48.55
68511;SHT31;55512;50.102;19.958;2023-02-28T10:08:16;4.78;48.46
68511;SHT31;55512;50.102;19.958;2023-02-28T10:10:51;4.76;47.96
68511;SHT31;55512;50.102;19.958;2023-02-28T10:16:43;4.72;48.47
68511;SHT31;55512;50.102;19.958;2023-02-28T10:22:00;4.68;48.25
68511;SHT31;55512;50.102;19.958;2023-02-28T10:24:38;4.67;48.29
68511;SHT31;55512;50.102;19.958;2023-02-28T10:29:52;4.57;48.19
68511;SHT31;55512;50.102;19.958;2023-02-28T10:32:25;4.49;48.68
68511;SHT31;55512;50.102;19.958;2023-02-28T10:37:44;4.53;48.88
68511;SHT31;55512;50.102;19.958;2023-02-28T10:43:19;4.59;48.75
68511;SHT31;55512;50.102;19.958;2023-02-28T10:45:55;4.61;48.45
68511;SHT31;55512;50.102;19.958;2023-02-28T10:50:59;4.67;48.29
68511;SHT31;55512;50.102;19.958;2023-02-28T10:58:49;4.74;48.34
68511;SHT31;55512;50.102;19.958;2023-02-28T11:04:03;4.77;47.70
68511;SHT31;55512;50.102;19.958;2023-02-28T11:06:47;4.78;47.65
68511;SHT31;55512;50.102;19.958;2023-02-28T11:09:23;4.76;47.69
68511;SHT31;55512;50.102;19.958;2023-02-28T11:11:56;4.71;47.20
68511;SHT31;55512;50.102;19.958;2023-02-28T11:14:23;4.66;47.31
68511;SHT31;55512;50.102;19.958;2023-02-28T11:16:53;4.66;47.42
68511;SHT31;55512;50.102;19.958;2023-02-28T11:19:30;4.63;47.92
68511;SHT31;55512;50.102;19.958;2023-02-28T11:22:05;4.64;47.80
68511;SHT31;55512;50.102;19.958;2023-02-28T11:24:33;4.66;47.83
68511;SHT31;55512;50.102;19.958;2023-02-28T11:30:00;4.74;47.68
68511;SHT31;55512;50.102;19.958;2023-02-28T11:32:29;4.78;47.95
68511;SHT31;55512;50.102;19.958;2023-02-28T11:35:00;4.82;48.07
68511;SHT31;55512;50.102;19.958;2023-02-28T11:37:44;4.86;48.19
68511;SHT31;55512;50.102;19.958;2023-02-28T11:40:21;4.91;48.04
68511;SHT31;55512;50.102;19.958;2023-02-28T11:43:09;4.89;47.44
68511;SHT31;55512;50.102;19.958;2023-02-28T11:51:51;4.95;47.15
68511;SHT31;55512;50.102;19.958;2023-02-28T11:57:27;5.08;47.18
68511;SHT31;55512;50.102;19.958;2023-02-28T12:03:30;5.28;47.39
68511;SHT31;55512;50.102;19.958;2023-02-28T12:06:24;5.38;47.39
68511;SHT31;55512;50.102;19.958;2023-02-28T12:15:39;5.56;46.35
68511;SHT31;55512;50.102;19.958;2023-02-28T12:20:51;5.32;45.73
68511;SHT31;55512;50.102;19.958;2023-02-28T12:26:50;5.45;46.45
68511;SHT31;55512;50.102;19.958;2023-02-28T12:29:30;5.53;46.29
68511;SHT31;55512;50.102;19.958;2023-02-28T12:32:06;5.62;46.48
68511;SHT31;55512;50.102;19.958;2023-02-28T12:35:05;5.74;46.77
68511;SHT31;55512;50.102;19.958;2023-02-28T12:40:50;6.03;45.59
68511;SHT31;55512;50.102;19.958;2023-02-28T12:43:27;6.14;45.84
68511;SHT31;55512;50.102;19.958;2023-02-28T12:46:01;6.28;46.13
68511;SHT31;55512;50.102;19.958;2023-02-28T12:49:30;6.42;45.95
68511;SHT31;55512;50.102;19.958;2023-02-28T12:51:39;6.51;45.90
68511;SHT31;55512;50.102;19.958;2023-02-28T12:57:02;6.53;45.96
68511;SHT31;55512;50.102;19.958;2023-02-28T13:00:15;6.50;45.44
68511;SHT31;55512;50.102;19.958;2023-02-28T13:05:22;6.73;45.67
68511;SHT31;55512;50.102;19.958;2023-02-28T13:13:21;7.14;45.26
68511;SHT31;55512;50.102;19.958;2023-02-28T13:15:58;7.28;44.97
68511;SHT31;55512;50.102;19.958;2023-02-28T13:18:33;7.42;44.75
68511;SHT31;55512;50.102;19.958;2023-02-28T13:21:07;7.55;44.46
68511;SHT31;55512;50.102;19.958;2023-02-28T13:27:11;7.42;44.93
68511;SHT31;55512;50.102;19.958;2023-02-28T13:34:47;7.72;43.53
68511;SHT31;55512;50.102;19.958;2023-02-28T13:39:58;7.66;43.93
68511;SHT31;55512;50.102;19.958;2023-02-28T13:42:52;7.82;43.37
68511;SHT31;55512;50.102;19.958;2023-02-28T13:45:24;7.85;43.29
68511;SHT31;55512;50.102;19.958;2023-02-28T13:50:49;7.66;42.75
68511;SHT31;55512;50.102;19.958;2023-02-28T13:58:55;7.58;43.03
68511;SHT31;55512;50.102;19.958;2023-02-28T14:07:54;7.64;43.07
68511;SHT31;55512;50.102;19.958;2023-02-28T14:10:31;7.82;43.28
68511;SHT31;55512;50.102;19.958;2023-02-28T14:15:57;8.14;41.84
68511;SHT31;55512;50.102;19.958;2023-02-28T14:18:31;8.22;42.55
68511;SHT31;55512;50.102;19.958;2023-02-28T14:32:28;18.71;33.11
68511;SHT31;55512;50.102;19.958;2023-02-28T14:38:29;22.33;29.57
68511;SHT31;55512;50.102;19.958;2023-02-28T14:41:02;23.23;28.08
68511;SHT31;55512;50.102;19.958;2023-02-28T14:43:47;24.16;27.93
68511;SHT31;55512;50.102;19.958;2023-02-28T14:46:15;25.30;26.80
68511;SHT31;55512;50.102;19.958;2023-02-28T14:48:47;25.89;26.11
68511;SHT31;55512;50.102;19.958;2023-02-28T14:51:18;26.56;25.40
68511;SHT31;55512;50.102;19.958;2023-02-28T14:53:52;26.98;24.25
68511;SHT31;55512;50.102;19.958;2023-02-28T14:56:26;27.20;23.60
68511;SHT31;55512;50.102;19.958;2023-02-28T14:59:00;27.47;23.39
68511;SHT31;55512;50.102;19.958;2023-02-28T15:01:25;27.69;22.98
68511;SHT31;55512;50.102;19.958;2023-02-28T15:03:58;27.82;22.43
68511;SHT31;55512;50.102;19.958;2023-02-28T15:06:28;27.91;22.12
68511;SHT31;55512;50.102;19.958;2023-02-28T15:09:07;27.87;21.01
68511;SHT31;55512;50.102;19.958;2023-02-28T15:11:41;27.51;21.11
68511;SHT31;55512;50.102;19.958;2023-02-28T15:14:18;27.59;21.02
68511;SHT31;55512;50.102;19.958;2023-02-28T15:16:48;27.73;20.72
68511;SHT31;55512;50.102;19.958;2023-02-28T15:19:41;27.74;20.00
68511;SHT31;55512;50.102;19.958;2023-02-28T15:22:15;27.00;19.47
68511;SHT31;55512;50.102;19.958;2023-02-28T15:24:48;26.40;20.38
68511;SHT31;55512;50.102;19.958;2023-02-28T15:27:27;26.41;20.43
68511;SHT31;55512;50.102;19.958;2023-02-28T15:30:00;26.18;20.27
68511;SHT31;55512;50.102;19.958;2023-02-28T15:32:33;25.97;20.18
68511;SHT31;55512;50.102;19.958;2023-02-28T15:35:25;25.61;20.36
68511;SHT31;55512;50.102;19.958;2023-02-28T15:38:17;25.02;20.52
68511;SHT31;55512;50.102;19.958;2023-02-28T15:46:10;21.93;21.61
68511;SHT31;55512;50.102;19.958;2023-02-28T15:48:45;21.15;21.89
68511;SHT31;55512;50.102;19.958;2023-02-28T15:51:18;20.49;22.20
68511;SHT31;55512;50.102;19.958;2023-02-28T15:53:51;19.78;22.71
68511;SHT31;55512;50.102;19.958;2023-02-28T15:56:28;18.56;23.49
68511;SHT31;55512;50.102;19.958;2023-02-28T15:59:02;17.30;24.30
68511;SHT31;55512;50.102;19.958;2023-02-28T16:01:37;16.12;25.05
68511;SHT31;55512;50.102;19.958;2023-02-28T16:04:17;15.14;25.85
68511;SHT31;55512;50.102;19.958;2023-02-28T16:06:45;14.23;26.56
68511;SHT31;55512;50.102;19.958;2023-02-28T16:09:25;13.35;27.42
68511;SHT31;55512;50.102;19.958;2023-02-28T16:11:53;12.64;28.30
68511;SHT31;55512;50.102;19.958;2023-02-28T16:14:23;12.06;29.08
68511;SHT31;55512;50.102;19.958;2023-02-28T16:17:05;11.45;29.83
68511;SHT31;55512;50.102;19.958;2023-02-28T16:19:38;10.83;30.68
68511;SHT31;55512;50.102;19.958;2023-02-28T16:22:04;10.34;31.38
68511;SHT31;55512;50.102;19.958;2023-02-28T16:24:29;9.90;32.09
68511;SHT31;55512;50.102;19.958;2023-02-28T16:26:55;9.50;32.74
68511;SHT31;55512;50.102;19.958;2023-02-28T16:31:55;8.73;33.96
68511;SHT31;55512;50.102;19.958;2023-02-28T16:34:21;8.36;34.59
68511;SHT31;55512;50.102;19.958;2023-02-28T16:36:47;8.04;35.21
68511;SHT31;55512;50.102;19.958;2023-02-28T16:39:13;7.77;35.70
68511;SHT31;55512;50.102;19.958;2023-02-28T16:41:41;7.55;36.18
68511;SHT31;55512;50.102;19.958;2023-02-28T16:44:10;7.30;36.78
68511;SHT31;55512;50.102;19.958;2023-02-28T16:46:54;7.06;37.28
68511;SHT31;55512;50.102;19.958;2023-02-28T16:49:19;6.85;37.82
68511;SHT31;55512;50.102;19.958;2023-02-28T16:51:45;6.63;38.31
68511;SHT31;55512;50.102;19.958;2023-02-28T16:54:11;6.43;38.87
68511;SHT31;55512;50.102;19.958;2023-02-28T16:56:37;6.25;39.60
68511;SHT31;55512;50.102;19.958;2023-02-28T16:59:09;6.07;40.23
68511;SHT31;55512;50.102;19.958;2023-02-28T17:01:36;5.86;40.98
68511;SHT31;55512;50.102;19.958;2023-02-28T17:04:03;5.65;41.42
68511;SHT31;55512;50.102;19.958;2023-02-28T17:06:29;5.50;41.82
68511;SHT31;55512;50.102;19.958;2023-02-28T17:08:56;5.36;42.16
68511;SHT31;55512;50.102;19.958;2023-02-28T17:11:23;5.22;42.53
68511;SHT31;55512;50.102;19.958;2023-02-28T17:13:50;5.10;42.75
68511;SHT31;55512;50.102;19.958;2023-02-28T17:16:27;4.98;43.01
68511;SHT31;55512;50.102;19.958;2023-02-28T17:19:00;4.85;43.40
68511;SHT31;55512;50.102;19.958;2023-02-28T17:21:29;4.72;43.71
68511;SHT31;55512;50.102;19.958;2023-02-28T17:23:56;4.61;44.02
68511;SHT31;55512;50.102;19.958;2023-02-28T17:26:22;4.51;44.43
68511;SHT31;55512;50.102;19.958;2023-02-28T17:28:54;4.39;44.77
68511;SHT31;55512;50.102;19.958;2023-02-28T17:31:22;4.28;45.08
68511;SHT31;55512;50.102;19.958;2023-02-28T17:33:49;4.18;45.38
68511;SHT31;55512;50.102;19.958;2023-02-28T17:36:16;4.09;45.73
68511;SHT31;55512;50.102;19.958;2023-02-28T17:38:49;4.00;45.99
68511;SHT31;55512;50.102;19.958;2023-02-28T17:41:16;3.91;46.22
68511;SHT31;55512;50.102;19.958;2023-02-28T17:43:41;3.83;46.35
68511;SHT31;55512;50.102;19.958;2023-02-28T17:46:11;3.79;46.40
68511;SHT31;55512;50.102;19.958;2023-02-28T17:48:45;3.75;46.32
68511;SHT31;55512;50.102;19.958;2023-02-28T17:51:14;3.71;46.34
68511;SHT31;55512;50.102;19.958;2023-02-28T17:53:42;3.67;46.44
68511;SHT31;55512;50.102;19.958;2023-02-28T17:56:11;3.62;46.56
68511;SHT31;55512;50.102;19.958;2023-02-28T17:58:49;3.57;46.61
68511;SHT31;55512;50.102;19.958;2023-02-28T18:01:17;3.53;46.71
68511;SHT31;55512;50.102;19.958;2023-02-28T18:03:45;3.50;46.81
68511;SHT31;55512;50.102;19.958;2023-02-28T18:08:58;3.39;47.15
68511;SHT31;55512;50.102;19.958;2023-02-28T18:11:24;3.35;47.33
68511;SHT31;55512;50.102;19.958;2023-02-28T18:13:51;3.32;47.49
68511;SHT31;55512;50.102;19.958;2023-02-28T18:16:20;3.29;47.67
68511;SHT31;55512;50.102;19.958;2023-02-28T18:18:47;3.25;47.76
68511;SHT31;55512;50.102;19.958;2023-02-28T18:21:14;3.20;47.93
68511;SHT31;55512;50.102;19.958;2023-02-28T18:23:41;3.17;48.03
68511;SHT31;55512;50.102;19.958;2023-02-28T18:26:13;3.14;48.12
68511;SHT31;55512;50.102;19.958;2023-02-28T18:28:40;3.09;48.24
68511;SHT31;55512;50.102;19.958;2023-02-28T18:31:12;3.00;48.40
68511;SHT31;55512;50.102;19.958;2023-02-28T18:33:44;2.89;48.62
68511;SHT31;55512;50.102;19.958;2023-02-28T18:36:14;2.83;48.82
68511;SHT31;55512;50.102;19.958;2023-02-28T18:38:40;2.76;49.00
68511;SHT31;55512;50.102;19.958;2023-02-28T18:41:07;2.70;49.15
68511;SHT31;55512;50.102;19.958;2023-02-28T18:43:34;2.64;49.29
68511;SHT31;55512;50.102;19.958;2023-02-28T18:46:12;2.61;49.51
68511;SHT31;55512;50.102;19.958;2023-02-28T18:48:41;2.57;49.75
68511;SHT31;55512;50.102;19.958;2023-02-28T18:51:18;2.51;50.05
68511;SHT31;55512;50.102;19.958;2023-02-28T18:53:48;2.46;50.39
68511;SHT31;55512;50.102;19.958;2023-02-28T18:56:16;2.42;50.65
68511;SHT31;55512;50.102;19.958;2023-02-28T18:58:44;2.38;50.96
68511;SHT31;55512;50.102;19.958;2023-02-28T19:01:20;2.33;51.08